createdAt,value
2022-10-13T00:03:30.462Z,1.30
2022-10-13T00:08:03.304Z,1.90
2022-10-13T00:12:29.044Z,1.63
2022-10-13T00:16:43.207Z,1.87
2022-10-13T00:20:58.551Z,1.40
2022-10-13T00:25:12.636Z,1.80
2022-10-13T00:29:25.025Z,1.80
2022-10-13T00:33:38.827Z,1.40
2022-10-13T00:37:54.606Z,1.90
2022-10-13T00:42:14.205Z,1.60
2022-10-13T00:46:29.344Z,1.90
2022-10-13T00:50:56.440Z,2.30
2022-10-13T00:55:15.332Z,1.67
2022-10-13T00:59:32.546Z,1.60
2022-10-13T01:03:46.532Z,2.03
2022-10-13T01:08:03.974Z,1.90
2022-10-13T01:12:31.504Z,1.90
2022-10-13T01:16:55.189Z,1.80
2022-10-13T01:21:17.004Z,1.97
2022-10-13T01:25:51.026Z,2.27
2022-10-13T01:30:28.007Z,2.10
2022-10-13T01:34:52.874Z,1.73
2022-10-13T01:39:12.869Z,2.13
2022-10-13T01:43:30.981Z,2.10
2022-10-13T01:47:49.672Z,2.50
2022-10-13T01:52:18.767Z,2.50
2022-10-13T01:56:33.920Z,2.60
2022-10-13T02:01:00.431Z,2.13
2022-10-13T02:05:35.133Z,2.70
2022-10-13T02:09:59.071Z,2.37
2022-10-13T02:14:13.555Z,2.43
2022-10-13T02:18:26.461Z,2.17
2022-10-13T02:22:44.165Z,2.50
2022-10-13T02:26:54.327Z,1.93
2022-10-13T02:31:06.974Z,2.63
2022-10-13T02:35:16.527Z,2.03
2022-10-13T02:39:27.487Z,2.50
2022-10-13T02:43:38.229Z,2.67
2022-10-13T02:47:48.402Z,2.77
2022-10-13T02:51:58.076Z,2.40
2022-10-13T02:56:09.228Z,2.40
2022-10-13T03:00:19.827Z,2.40
2022-10-13T03:04:29.318Z,2.63
2022-10-13T03:08:38.898Z,2.33
2022-10-13T03:12:49.710Z,2.10
2022-10-13T03:16:59.510Z,2.30
2022-10-13T03:21:11.682Z,2.03
2022-10-13T03:25:21.264Z,2.37
2022-10-13T03:29:34.149Z,2.70
2022-10-13T03:33:43.284Z,2.63
2022-10-13T03:37:53.133Z,2.60
2022-10-13T03:42:02.435Z,2.60
2022-10-13T03:46:14.907Z,2.70
2022-10-13T03:50:24.230Z,2.77
2022-10-13T03:54:36.527Z,2.60
2022-10-13T03:58:45.854Z,2.77
2022-10-13T04:02:57.932Z,2.27
2022-10-13T04:07:08.512Z,2.40
2022-10-13T04:11:19.261Z,3.67
2022-10-13T04:15:30.263Z,3.50
2022-10-13T04:20:09.218Z,3.37
2022-10-13T04:29:59.999Z,3.70
2022-10-13T04:34:29.727Z,4.37
2022-10-13T04:39:10.233Z,4.10
2022-10-13T04:44:01.457Z,4.43
2022-10-13T05:08:11.531Z,6.70
2022-10-13T05:17:19.477Z,6.80
2022-10-13T05:21:30.801Z,6.87
2022-10-13T05:25:43.254Z,6.77
2022-10-13T05:30:01.822Z,5.93
2022-10-13T05:39:03.122Z,5.47
2022-10-13T05:43:22.042Z,6.13
2022-10-13T05:52:29.330Z,4.93
2022-10-13T06:05:57.300Z,5.83
2022-10-13T06:10:13.678Z,5.60
2022-10-13T06:14:23.247Z,5.53
2022-10-13T08:47:39.609Z,4.77
2022-10-13T08:57:15.930Z,4.10
2022-10-13T09:46:47.267Z,2.80
2022-10-13T10:49:23.067Z,2.50
2022-10-13T11:17:21.612Z,2.67
2022-10-13T11:22:15.811Z,3.03
2022-10-13T11:26:42.673Z,3.07
2022-10-13T11:31:08.522Z,3.23
2022-10-13T11:35:34.529Z,2.30
2022-10-13T11:40:32.607Z,1.70
2022-10-13T11:49:45.570Z,2.33
2022-10-13T11:54:28.505Z,2.50
2022-10-13T11:58:44.650Z,2.60
2022-10-13T12:07:25.710Z,3.80
2022-10-13T12:11:39.828Z,4.20
2022-10-13T12:20:41.808Z,3.00
2022-10-13T12:29:37.044Z,3.13
2022-10-13T12:34:29.229Z,3.03
2022-10-13T12:43:18.408Z,2.67
2022-10-13T12:48:03.417Z,2.83
2022-10-13T12:52:18.754Z,2.20
2022-10-13T12:56:34.089Z,1.70
2022-10-13T13:01:19.851Z,2.20
2022-10-13T13:05:34.666Z,1.73
2022-10-13T13:10:02.731Z,1.57
2022-10-13T13:14:26.027Z,1.60
2022-10-13T13:18:39.966Z,1.60
2022-10-13T13:22:51.180Z,1.90
2022-10-13T13:36:23.052Z,2.43
2022-10-13T13:40:33.145Z,1.87
2022-10-13T13:44:44.367Z,2.20
2022-10-13T13:48:57.907Z,2.43
2022-10-13T13:53:08.204Z,1.97
2022-10-13T15:41:09.470Z,1.73
2022-10-13T15:45:24.803Z,1.70
2022-10-13T15:49:39.068Z,1.90
2022-10-13T15:53:49.184Z,1.80
2022-10-13T16:03:08.546Z,1.20
2022-10-13T16:07:18.965Z,1.30
2022-10-13T16:11:28.144Z,1.30
2022-10-13T16:15:37.688Z,1.20
2022-10-13T16:19:48.932Z,2.03
2022-10-13T16:23:58.506Z,1.70
2022-10-13T16:28:07.849Z,1.97
2022-10-13T16:32:17.786Z,2.47
2022-10-13T16:36:29.747Z,2.57
2022-10-13T16:40:40.607Z,2.00
2022-10-13T16:44:53.828Z,2.00
2022-10-13T16:49:06.665Z,2.40
2022-10-13T16:53:23.625Z,2.47
2022-10-13T16:57:33.817Z,2.53
2022-10-13T17:01:48.430Z,2.80
2022-10-13T17:11:29.965Z,2.47
2022-10-13T17:57:57.648Z,1.63
2022-10-13T18:02:11.983Z,1.20
2022-10-13T18:06:25.469Z,1.27
2022-10-13T18:15:42.674Z,1.70
2022-10-13T18:24:27.925Z,1.80
2022-10-13T18:28:43.703Z,2.97
2022-10-13T18:33:05.904Z,4.00
2022-10-13T18:47:32.944Z,3.47
2022-10-13T18:51:45.346Z,3.70
2022-10-13T19:01:06.335Z,4.10
2022-10-13T19:05:16.145Z,4.40
2022-10-13T19:09:32.585Z,4.50
2022-10-13T20:05:57.324Z,5.70
2022-10-13T20:39:14.007Z,6.93
2022-10-13T22:13:46.325Z,9.03
